sensor_id;sensor_type;location;lat;lon;timestamp;P1;durP1;ratioP1;P2;durP2;ratioP2
36355;SDS011;22384;54.302;18.596;2023-02-28T00:01:12;99.47;;;39.80;;
36355;SDS011;22384;54.302;18.596;2023-02-28T00:03:39;92.53;;;36.05;;
36355;SDS011;22384;54.302;18.596;2023-02-28T00:06:05;98.93;;;37.00;;
36355;SDS011;22384;54.302;18.596;2023-02-28T00:08:34;104.00;;;39.70;;
36355;SDS011;22384;54.302;18.596;2023-02-28T00:11:03;97.40;;;36.03;;
36355;SDS011;22384;54.302;18.596;2023-02-28T00:13:30;88.10;;;34.28;;
36355;SDS011;22384;54.302;18.596;2023-02-28T00:16:00;86.10;;;31.85;;
36355;SDS011;22384;54.302;18.596;2023-02-28T00:18:26;75.82;;;29.63;;
36355;SDS011;22384;54.302;18.596;2023-02-28T00:20:55;80.35;;;30.45;;
36355;SDS011;22384;54.302;18.596;2023-02-28T00:23:24;78.65;;;31.15;;
36355;SDS011;22384;54.302;18.596;2023-02-28T00:25:51;76.13;;;30.15;;
36355;SDS011;22384;54.302;18.596;2023-02-28T00:28:17;72.65;;;28.75;;
36355;SDS011;22384;54.302;18.596;2023-02-28T00:30:44;69.72;;;27.08;;
36355;SDS011;22384;54.302;18.596;2023-02-28T00:33:11;79.88;;;29.65;;
36355;SDS011;22384;54.302;18.596;2023-02-28T00:35:37;82.22;;;30.92;;
36355;SDS011;22384;54.302;18.596;2023-02-28T00:38:03;90.13;;;34.55;;
36355;SDS011;22384;54.302;18.596;2023-02-28T00:40:29;92.60;;;32.00;;
36355;SDS011;22384;54.302;18.596;2023-02-28T00:42:56;96.65;;;34.33;;
36355;SDS011;22384;54.302;18.596;2023-02-28T00:45:22;77.55;;;28.13;;
36355;SDS011;22384;54.302;18.596;2023-02-28T00:47:48;72.35;;;27.00;;
36355;SDS011;22384;54.302;18.596;2023-02-28T00:50:18;79.25;;;27.98;;
36355;SDS011;22384;54.302;18.596;2023-02-28T00:52:47;79.03;;;27.80;;
36355;SDS011;22384;54.302;18.596;2023-02-28T00:55:15;81.22;;;29.13;;
36355;SDS011;22384;54.302;18.596;2023-02-28T00:57:42;78.80;;;30.33;;
36355;SDS011;22384;54.302;18.596;2023-02-28T01:00:08;86.75;;;28.95;;
36355;SDS011;22384;54.302;18.596;2023-02-28T01:02:34;73.53;;;29.60;;
36355;SDS011;22384;54.302;18.596;2023-02-28T01:05:01;73.30;;;25.23;;
36355;SDS011;22384;54.302;18.596;2023-02-28T01:07:28;62.55;;;25.30;;
36355;SDS011;22384;54.302;18.596;2023-02-28T01:09:55;60.70;;;22.85;;
36355;SDS011;22384;54.302;18.596;2023-02-28T01:12:21;60.80;;;23.55;;
36355;SDS011;22384;54.302;18.596;2023-02-28T01:14:47;63.55;;;24.38;;
36355;SDS011;22384;54.302;18.596;2023-02-28T01:17:14;62.42;;;24.85;;
36355;SDS011;22384;54.302;18.596;2023-02-28T01:19:40;64.30;;;24.48;;
36355;SDS011;22384;54.302;18.596;2023-02-28T01:22:06;74.00;;;26.35;;
36355;SDS011;22384;54.302;18.596;2023-02-28T01:24:32;55.45;;;22.17;;
36355;SDS011;22384;54.302;18.596;2023-02-28T01:26:59;57.17;;;21.75;;
36355;SDS011;22384;54.302;18.596;2023-02-28T01:29:26;48.83;;;19.42;;
36355;SDS011;22384;54.302;18.596;2023-02-28T01:31:52;51.20;;;19.40;;
36355;SDS011;22384;54.302;18.596;2023-02-28T01:34:24;52.05;;;18.48;;
36355;SDS011;22384;54.302;18.596;2023-02-28T01:36:51;45.10;;;19.10;;
36355;SDS011;22384;54.302;18.596;2023-02-28T01:39:17;46.55;;;18.92;;
36355;SDS011;22384;54.302;18.596;2023-02-28T01:41:45;46.15;;;17.50;;
36355;SDS011;22384;54.302;18.596;2023-02-28T01:46:57;42.28;;;16.67;;
36355;SDS011;22384;54.302;18.596;2023-02-28T01:49:23;49.97;;;17.77;;
36355;SDS011;22384;54.302;18.596;2023-02-28T01:51:50;45.25;;;17.63;;
36355;SDS011;22384;54.302;18.596;2023-02-28T01:54:31;44.25;;;16.85;;
36355;SDS011;22384;54.302;18.596;2023-02-28T01:57:13;30.60;;;13.43;;
36355;SDS011;22384;54.302;18.596;2023-02-28T02:02:12;40.85;;;16.80;;
36355;SDS011;22384;54.302;18.596;2023-02-28T02:07:29;39.38;;;14.07;;
36355;SDS011;22384;54.302;18.596;2023-02-28T02:09:59;28.60;;;11.55;;
36355;SDS011;22384;54.302;18.596;2023-02-28T02:12:42;25.65;;;11.50;;
36355;SDS011;22384;54.302;18.596;2023-02-28T02:15:16;25.73;;;9.63;;
36355;SDS011;22384;54.302;18.596;2023-02-28T02:17:44;27.25;;;10.40;;
36355;SDS011;22384;54.302;18.596;2023-02-28T02:33:27;17.48;;;7.43;;
36355;SDS011;22384;54.302;18.596;2023-02-28T02:36:07;19.92;;;8.27;;
36355;SDS011;22384;54.302;18.596;2023-02-28T02:43:51;26.42;;;9.50;;
36355;SDS011;22384;54.302;18.596;2023-02-28T02:46:38;23.98;;;9.13;;
36355;SDS011;22384;54.302;18.596;2023-02-28T02:49:06;25.50;;;9.60;;
36355;SDS011;22384;54.302;18.596;2023-02-28T02:51:34;23.63;;;9.65;;
36355;SDS011;22384;54.302;18.596;2023-02-28T02:56:54;26.67;;;11.50;;
36355;SDS011;22384;54.302;18.596;2023-02-28T02:59:21;28.40;;;12.50;;
36355;SDS011;22384;54.302;18.596;2023-02-28T03:01:50;31.20;;;12.65;;
36355;SDS011;22384;54.302;18.596;2023-02-28T03:04:19;39.72;;;15.77;;
36355;SDS011;22384;54.302;18.596;2023-02-28T03:06:53;38.95;;;14.63;;
36355;SDS011;22384;54.302;18.596;2023-02-28T03:09:20;44.17;;;16.98;;
36355;SDS011;22384;54.302;18.596;2023-02-28T03:11:46;38.38;;;15.55;;
36355;SDS011;22384;54.302;18.596;2023-02-28T03:22:04;47.67;;;17.10;;
36355;SDS011;22384;54.302;18.596;2023-02-28T03:27:05;45.78;;;18.23;;
36355;SDS011;22384;54.302;18.596;2023-02-28T03:29:33;53.15;;;18.52;;
36355;SDS011;22384;54.302;18.596;2023-02-28T03:32:05;37.88;;;15.27;;
36355;SDS011;22384;54.302;18.596;2023-02-28T03:34:39;29.30;;;13.23;;
36355;SDS011;22384;54.302;18.596;2023-02-28T03:37:11;29.88;;;12.55;;
36355;SDS011;22384;54.302;18.596;2023-02-28T03:39:40;30.73;;;12.13;;
36355;SDS011;22384;54.302;18.596;2023-02-28T03:42:11;33.55;;;11.27;;
36355;SDS011;22384;54.302;18.596;2023-02-28T03:44:42;24.07;;;10.00;;
36355;SDS011;22384;54.302;18.596;2023-02-28T03:47:11;24.05;;;9.20;;
36355;SDS011;22384;54.302;18.596;2023-02-28T03:49:40;22.35;;;9.77;;
36355;SDS011;22384;54.302;18.596;2023-02-28T03:52:08;27.85;;;10.20;;
36355;SDS011;22384;54.302;18.596;2023-02-28T03:54:36;29.27;;;9.82;;
36355;SDS011;22384;54.302;18.596;2023-02-28T04:02:44;26.67;;;9.63;;
36355;SDS011;22384;54.302;18.596;2023-02-28T04:05:11;22.58;;;9.50;;
36355;SDS011;22384;54.302;18.596;2023-02-28T04:07:37;25.58;;;8.85;;
36355;SDS011;22384;54.302;18.596;2023-02-28T04:10:04;22.45;;;9.25;;
36355;SDS011;22384;54.302;18.596;2023-02-28T04:12:30;27.95;;;9.40;;
36355;SDS011;22384;54.302;18.596;2023-02-28T04:14:57;27.30;;;8.85;;
36355;SDS011;22384;54.302;18.596;2023-02-28T04:17:24;24.58;;;9.98;;
36355;SDS011;22384;54.302;18.596;2023-02-28T04:19:50;22.98;;;7.85;;
36355;SDS011;22384;54.302;18.596;2023-02-28T04:22:16;25.55;;;9.07;;
36355;SDS011;22384;54.302;18.596;2023-02-28T04:24:42;22.58;;;8.73;;
36355;SDS011;22384;54.302;18.596;2023-02-28T04:27:09;20.02;;;6.93;;
36355;SDS011;22384;54.302;18.596;2023-02-28T04:29:35;24.42;;;7.40;;
36355;SDS011;22384;54.302;18.596;2023-02-28T04:32:03;19.83;;;7.97;;
36355;SDS011;22384;54.302;18.596;2023-02-28T04:34:30;19.83;;;7.75;;
36355;SDS011;22384;54.302;18.596;2023-02-28T04:36:58;17.55;;;7.70;;
36355;SDS011;22384;54.302;18.596;2023-02-28T04:39:25;16.73;;;7.88;;
36355;SDS011;22384;54.302;18.596;2023-02-28T04:41:51;19.30;;;8.35;;
36355;SDS011;22384;54.302;18.596;2023-02-28T04:44:18;21.45;;;7.72;;
36355;SDS011;22384;54.302;18.596;2023-02-28T04:46:47;17.77;;;7.32;;
36355;SDS011;22384;54.302;18.596;2023-02-28T04:49:13;15.57;;;6.90;;
36355;SDS011;22384;54.302;18.596;2023-02-28T04:51:40;14.95;;;6.32;;
36355;SDS011;22384;54.302;18.596;2023-02-28T04:54:07;18.55;;;6.85;;
36355;SDS011;22384;54.302;18.596;2023-02-28T04:56:33;14.95;;;6.80;;
36355;SDS011;22384;54.302;18.596;2023-02-28T04:58:59;15.25;;;6.97;;
36355;SDS011;22384;54.302;18.596;2023-02-28T05:01:30;18.10;;;6.63;;
36355;SDS011;22384;54.302;18.596;2023-02-28T05:03:58;15.07;;;6.55;;
36355;SDS011;22384;54.302;18.596;2023-02-28T05:06:25;16.58;;;6.75;;
36355;SDS011;22384;54.302;18.596;2023-02-28T05:08:52;15.85;;;7.47;;
36355;SDS011;22384;54.302;18.596;2023-02-28T05:11:20;15.18;;;6.82;;
36355;SDS011;22384;54.302;18.596;2023-02-28T05:13:47;20.95;;;7.13;;
36355;SDS011;22384;54.302;18.596;2023-02-28T05:16:15;22.45;;;7.45;;
36355;SDS011;22384;54.302;18.596;2023-02-28T05:18:42;13.52;;;6.03;;
36355;SDS011;22384;54.302;18.596;2023-02-28T05:24:03;14.15;;;5.97;;
36355;SDS011;22384;54.302;18.596;2023-02-28T05:26:30;17.88;;;6.32;;
36355;SDS011;22384;54.302;18.596;2023-02-28T05:28:58;15.10;;;6.90;;
36355;SDS011;22384;54.302;18.596;2023-02-28T05:31:25;16.75;;;6.55;;
36355;SDS011;22384;54.302;18.596;2023-02-28T05:33:56;12.25;;;5.57;;
36355;SDS011;22384;54.302;18.596;2023-02-28T05:36:23;16.13;;;6.70;;
36355;SDS011;22384;54.302;18.596;2023-02-28T05:38:51;21.02;;;7.30;;
36355;SDS011;22384;54.302;18.596;2023-02-28T05:41:19;20.50;;;5.80;;
36355;SDS011;22384;54.302;18.596;2023-02-28T05:43:47;14.20;;;6.68;;
36355;SDS011;22384;54.302;18.596;2023-02-28T05:46:13;13.20;;;4.90;;
36355;SDS011;22384;54.302;18.596;2023-02-28T05:48:40;9.23;;;4.60;;
36355;SDS011;22384;54.302;18.596;2023-02-28T05:51:08;15.80;;;4.70;;
36355;SDS011;22384;54.302;18.596;2023-02-28T05:53:35;12.20;;;4.68;;
36355;SDS011;22384;54.302;18.596;2023-02-28T05:56:03;12.02;;;4.88;;
36355;SDS011;22384;54.302;18.596;2023-02-28T05:58:31;13.27;;;5.68;;
36355;SDS011;22384;54.302;18.596;2023-02-28T06:00:58;12.23;;;5.00;;
36355;SDS011;22384;54.302;18.596;2023-02-28T06:03:24;15.88;;;4.90;;
36355;SDS011;22384;54.302;18.596;2023-02-28T06:05:51;14.02;;;6.30;;
36355;SDS011;22384;54.302;18.596;2023-02-28T06:08:18;14.18;;;5.97;;
36355;SDS011;22384;54.302;18.596;2023-02-28T06:10:44;15.20;;;6.35;;
36355;SDS011;22384;54.302;18.596;2023-02-28T06:13:11;18.02;;;7.82;;
36355;SDS011;22384;54.302;18.596;2023-02-28T06:15:38;21.17;;;7.85;;
36355;SDS011;22384;54.302;18.596;2023-02-28T06:18:05;23.20;;;7.82;;
36355;SDS011;22384;54.302;18.596;2023-02-28T06:20:31;18.00;;;6.65;;
36355;SDS011;22384;54.302;18.596;2023-02-28T06:22:59;20.63;;;5.88;;
36355;SDS011;22384;54.302;18.596;2023-02-28T06:25:27;13.60;;;5.70;;
36355;SDS011;22384;54.302;18.596;2023-02-28T06:27:54;12.90;;;5.57;;
36355;SDS011;22384;54.302;18.596;2023-02-28T06:30:21;13.88;;;5.25;;
36355;SDS011;22384;54.302;18.596;2023-02-28T06:32:52;14.43;;;6.13;;
36355;SDS011;22384;54.302;18.596;2023-02-28T06:35:18;15.40;;;6.50;;
36355;SDS011;22384;54.302;18.596;2023-02-28T06:37:46;13.70;;;5.68;;
36355;SDS011;22384;54.302;18.596;2023-02-28T06:40:12;19.40;;;6.43;;
36355;SDS011;22384;54.302;18.596;2023-02-28T06:42:38;12.82;;;5.82;;
36355;SDS011;22384;54.302;18.596;2023-02-28T06:45:04;13.23;;;5.25;;
36355;SDS011;22384;54.302;18.596;2023-02-28T06:47:34;11.77;;;4.57;;
36355;SDS011;22384;54.302;18.596;2023-02-28T06:50:00;15.50;;;6.55;;
36355;SDS011;22384;54.302;18.596;2023-02-28T06:52:26;15.00;;;5.72;;
36355;SDS011;22384;54.302;18.596;2023-02-28T06:54:52;16.42;;;7.22;;
36355;SDS011;22384;54.302;18.596;2023-02-28T06:57:27;19.02;;;6.63;;
36355;SDS011;22384;54.302;18.596;2023-02-28T06:59:57;16.45;;;7.55;;
36355;SDS011;22384;54.302;18.596;2023-02-28T07:02:23;12.18;;;5.50;;
36355;SDS011;22384;54.302;18.596;2023-02-28T07:04:50;16.55;;;6.22;;
36355;SDS011;22384;54.302;18.596;2023-02-28T07:07:17;12.07;;;5.72;;
36355;SDS011;22384;54.302;18.596;2023-02-28T07:09:44;14.65;;;5.78;;
36355;SDS011;22384;54.302;18.596;2023-02-28T07:12:12;13.52;;;5.97;;
36355;SDS011;22384;54.302;18.596;2023-02-28T07:14:38;16.27;;;6.18;;
36355;SDS011;22384;54.302;18.596;2023-02-28T07:17:06;19.80;;;6.72;;
36355;SDS011;22384;54.302;18.596;2023-02-28T07:19:32;14.60;;;6.45;;
36355;SDS011;22384;54.302;18.596;2023-02-28T07:21:58;13.73;;;5.57;;
36355;SDS011;22384;54.302;18.596;2023-02-28T07:24:24;14.40;;;6.22;;
36355;SDS011;22384;54.302;18.596;2023-02-28T07:26:53;14.15;;;5.82;;
36355;SDS011;22384;54.302;18.596;2023-02-28T07:29:19;14.02;;;5.72;;
36355;SDS011;22384;54.302;18.596;2023-02-28T07:31:45;14.00;;;5.70;;
36355;SDS011;22384;54.302;18.596;2023-02-28T07:34:12;12.77;;;5.10;;
36355;SDS011;22384;54.302;18.596;2023-02-28T07:36:38;14.73;;;6.10;;
36355;SDS011;22384;54.302;18.596;2023-02-28T07:39:05;16.83;;;6.40;;
36355;SDS011;22384;54.302;18.596;2023-02-28T07:41:31;15.82;;;5.88;;
36355;SDS011;22384;54.302;18.596;2023-02-28T07:43:59;19.90;;;6.70;;
36355;SDS011;22384;54.302;18.596;2023-02-28T07:46:26;12.00;;;5.60;;
36355;SDS011;22384;54.302;18.596;2023-02-28T07:48:53;14.20;;;5.85;;
36355;SDS011;22384;54.302;18.596;2023-02-28T07:53:52;18.95;;;6.50;;
36355;SDS011;22384;54.302;18.596;2023-02-28T07:56:20;13.98;;;5.95;;
36355;SDS011;22384;54.302;18.596;2023-02-28T07:58:46;13.43;;;6.18;;
36355;SDS011;22384;54.302;18.596;2023-02-28T08:01:12;12.13;;;5.07;;
36355;SDS011;22384;54.302;18.596;2023-02-28T08:03:39;12.80;;;5.72;;
36355;SDS011;22384;54.302;18.596;2023-02-28T08:06:07;16.38;;;5.30;;
36355;SDS011;22384;54.302;18.596;2023-02-28T08:08:33;13.48;;;6.65;;
36355;SDS011;22384;54.302;18.596;2023-02-28T08:11:01;17.90;;;5.38;;
36355;SDS011;22384;54.302;18.596;2023-02-28T08:13:27;12.30;;;5.35;;
36355;SDS011;22384;54.302;18.596;2023-02-28T08:15:54;15.43;;;5.90;;
36355;SDS011;22384;54.302;18.596;2023-02-28T08:18:21;23.08;;;6.70;;
36355;SDS011;22384;54.302;18.596;2023-02-28T08:20:47;18.73;;;5.85;;
36355;SDS011;22384;54.302;18.596;2023-02-28T08:23:14;13.18;;;5.35;;
36355;SDS011;22384;54.302;18.596;2023-02-28T08:25:41;12.93;;;4.93;;
36355;SDS011;22384;54.302;18.596;2023-02-28T08:28:09;15.43;;;4.97;;
36355;SDS011;22384;54.302;18.596;2023-02-28T08:30:36;12.60;;;5.55;;
36355;SDS011;22384;54.302;18.596;2023-02-28T08:33:02;12.15;;;4.95;;
36355;SDS011;22384;54.302;18.596;2023-02-28T08:35:29;14.50;;;4.90;;
36355;SDS011;22384;54.302;18.596;2023-02-28T08:37:56;13.73;;;4.40;;
36355;SDS011;22384;54.302;18.596;2023-02-28T08:40:22;13.30;;;4.85;;
36355;SDS011;22384;54.302;18.596;2023-02-28T08:42:49;14.02;;;3.92;;
36355;SDS011;22384;54.302;18.596;2023-02-28T08:45:16;6.93;;;3.20;;
36355;SDS011;22384;54.302;18.596;2023-02-28T08:47:42;10.32;;;3.45;;
36355;SDS011;22384;54.302;18.596;2023-02-28T08:50:09;9.35;;;2.95;;
36355;SDS011;22384;54.302;18.596;2023-02-28T08:52:36;5.10;;;2.33;;
36355;SDS011;22384;54.302;18.596;2023-02-28T08:55:03;7.05;;;2.40;;
36355;SDS011;22384;54.302;18.596;2023-02-28T08:57:30;6.82;;;2.97;;
36355;SDS011;22384;54.302;18.596;2023-02-28T08:59:57;9.32;;;2.70;;
36355;SDS011;22384;54.302;18.596;2023-02-28T09:02:23;11.20;;;2.67;;
36355;SDS011;22384;54.302;18.596;2023-02-28T09:04:51;7.28;;;2.70;;
36355;SDS011;22384;54.302;18.596;2023-02-28T09:07:18;8.68;;;2.85;;
36355;SDS011;22384;54.302;18.596;2023-02-28T09:09:44;6.90;;;2.35;;
36355;SDS011;22384;54.302;18.596;2023-02-28T09:12:19;10.27;;;3.30;;
36355;SDS011;22384;54.302;18.596;2023-02-28T09:14:46;7.38;;;2.50;;
36355;SDS011;22384;54.302;18.596;2023-02-28T09:17:12;5.35;;;2.33;;
36355;SDS011;22384;54.302;18.596;2023-02-28T09:19:40;7.93;;;2.75;;
36355;SDS011;22384;54.302;18.596;2023-02-28T09:22:06;5.93;;;2.08;;
36355;SDS011;22384;54.302;18.596;2023-02-28T09:24:33;5.78;;;2.03;;
36355;SDS011;22384;54.302;18.596;2023-02-28T09:27:01;5.20;;;2.08;;
36355;SDS011;22384;54.302;18.596;2023-02-28T09:29:27;7.38;;;2.22;;
36355;SDS011;22384;54.302;18.596;2023-02-28T09:31:53;4.15;;;2.00;;
36355;SDS011;22384;54.302;18.596;2023-02-28T09:34:19;7.30;;;2.58;;
36355;SDS011;22384;54.302;18.596;2023-02-28T09:36:45;9.45;;;2.67;;
36355;SDS011;22384;54.302;18.596;2023-02-28T09:39:13;7.45;;;2.60;;
36355;SDS011;22384;54.302;18.596;2023-02-28T09:41:43;6.28;;;2.83;;
36355;SDS011;22384;54.302;18.596;2023-02-28T09:44:26;9.77;;;3.78;;
36355;SDS011;22384;54.302;18.596;2023-02-28T09:46:56;8.98;;;4.07;;
36355;SDS011;22384;54.302;18.596;2023-02-28T09:49:25;12.02;;;4.03;;
36355;SDS011;22384;54.302;18.596;2023-02-28T09:52:02;10.93;;;4.10;;
36355;SDS011;22384;54.302;18.596;2023-02-28T09:54:29;12.00;;;4.35;;
36355;SDS011;22384;54.302;18.596;2023-02-28T09:56:58;9.48;;;4.40;;
36355;SDS011;22384;54.302;18.596;2023-02-28T09:59:39;13.10;;;5.05;;
36355;SDS011;22384;54.302;18.596;2023-02-28T10:04:54;14.52;;;6.40;;
36355;SDS011;22384;54.302;18.596;2023-02-28T10:09:52;11.98;;;5.72;;
36355;SDS011;22384;54.302;18.596;2023-02-28T10:12:20;11.07;;;6.10;;
36355;SDS011;22384;54.302;18.596;2023-02-28T10:14:47;14.35;;;6.63;;
36355;SDS011;22384;54.302;18.596;2023-02-28T10:17:16;19.38;;;6.90;;
36355;SDS011;22384;54.302;18.596;2023-02-28T10:22:26;18.13;;;6.78;;
36355;SDS011;22384;54.302;18.596;2023-02-28T10:24:55;12.68;;;5.82;;
36355;SDS011;22384;54.302;18.596;2023-02-28T10:27:26;15.80;;;6.47;;
36355;SDS011;22384;54.302;18.596;2023-02-28T10:29:55;12.77;;;5.80;;
36355;SDS011;22384;54.302;18.596;2023-02-28T10:32:23;16.80;;;5.85;;
36355;SDS011;22384;54.302;18.596;2023-02-28T10:34:59;12.82;;;5.63;;
36355;SDS011;22384;54.302;18.596;2023-02-28T10:37:26;12.15;;;5.25;;
36355;SDS011;22384;54.302;18.596;2023-02-28T10:39:53;15.55;;;5.82;;
36355;SDS011;22384;54.302;18.596;2023-02-28T10:42:26;10.32;;;4.30;;
36355;SDS011;22384;54.302;18.596;2023-02-28T10:47:40;12.32;;;4.65;;
36355;SDS011;22384;54.302;18.596;2023-02-28T10:50:25;12.50;;;4.32;;
36355;SDS011;22384;54.302;18.596;2023-02-28T10:52:53;10.25;;;4.38;;
36355;SDS011;22384;54.302;18.596;2023-02-28T10:55:23;8.73;;;3.75;;
36355;SDS011;22384;54.302;18.596;2023-02-28T10:57:54;10.00;;;4.38;;
36355;SDS011;22384;54.302;18.596;2023-02-28T11:02:47;11.57;;;3.08;;
36355;SDS011;22384;54.302;18.596;2023-02-28T11:07:53;8.75;;;4.00;;
36355;SDS011;22384;54.302;18.596;2023-02-28T11:10:20;8.30;;;3.25;;
36355;SDS011;22384;54.302;18.596;2023-02-28T11:12:48;11.10;;;3.90;;
36355;SDS011;22384;54.302;18.596;2023-02-28T11:15:35;9.52;;;3.35;;
36355;SDS011;22384;54.302;18.596;2023-02-28T11:18:05;7.35;;;3.55;;
36355;SDS011;22384;54.302;18.596;2023-02-28T11:20:34;9.57;;;4.32;;
36355;SDS011;22384;54.302;18.596;2023-02-28T11:23:01;10.73;;;4.47;;
36355;SDS011;22384;54.302;18.596;2023-02-28T11:25:34;12.85;;;4.68;;
36355;SDS011;22384;54.302;18.596;2023-02-28T11:28:03;11.82;;;5.20;;
36355;SDS011;22384;54.302;18.596;2023-02-28T11:32:59;10.65;;;4.70;;
36355;SDS011;22384;54.302;18.596;2023-02-28T11:35:30;11.55;;;5.57;;
36355;SDS011;22384;54.302;18.596;2023-02-28T11:37:56;17.67;;;5.80;;
36355;SDS011;22384;54.302;18.596;2023-02-28T11:43:09;11.93;;;4.73;;
36355;SDS011;22384;54.302;18.596;2023-02-28T11:46:05;15.13;;;5.30;;
36355;SDS011;22384;54.302;18.596;2023-02-28T11:48:52;10.55;;;5.00;;
36355;SDS011;22384;54.302;18.596;2023-02-28T11:51:24;10.35;;;4.93;;
36355;SDS011;22384;54.302;18.596;2023-02-28T11:56:31;8.70;;;4.63;;
36355;SDS011;22384;54.302;18.596;2023-02-28T12:01:57;9.67;;;4.10;;
36355;SDS011;22384;54.302;18.596;2023-02-28T12:12:58;8.65;;;3.40;;
36355;SDS011;22384;54.302;18.596;2023-02-28T12:20:49;10.45;;;3.97;;
36355;SDS011;22384;54.302;18.596;2023-02-28T12:23:41;10.98;;;4.00;;
36355;SDS011;22384;54.302;18.596;2023-02-28T12:28:36;6.22;;;2.55;;
36355;SDS011;22384;54.302;18.596;2023-02-28T12:31:09;9.35;;;3.28;;
36355;SDS011;22384;54.302;18.596;2023-02-28T12:33:36;6.70;;;2.88;;
36355;SDS011;22384;54.302;18.596;2023-02-28T12:36:10;9.68;;;3.45;;
36355;SDS011;22384;54.302;18.596;2023-02-28T12:38:54;7.13;;;2.95;;
36355;SDS011;22384;54.302;18.596;2023-02-28T12:44:06;7.20;;;3.10;;
36355;SDS011;22384;54.302;18.596;2023-02-28T12:46:44;8.63;;;3.10;;
36355;SDS011;22384;54.302;18.596;2023-02-28T12:49:27;7.32;;;3.50;;
36355;SDS011;22384;54.302;18.596;2023-02-28T12:51:57;7.78;;;3.10;;
36355;SDS011;22384;54.302;18.596;2023-02-28T12:54:28;5.45;;;2.88;;
36355;SDS011;22384;54.302;18.596;2023-02-28T13:07:40;5.95;;;3.22;;
36355;SDS011;22384;54.302;18.596;2023-02-28T13:10:07;7.07;;;3.45;;
36355;SDS011;22384;54.302;18.596;2023-02-28T13:12:34;9.18;;;3.03;;
36355;SDS011;22384;54.302;18.596;2023-02-28T13:15:08;6.63;;;2.88;;
36355;SDS011;22384;54.302;18.596;2023-02-28T13:17:40;8.05;;;2.97;;
36355;SDS011;22384;54.302;18.596;2023-02-28T13:20:17;5.22;;;2.60;;
36355;SDS011;22384;54.302;18.596;2023-02-28T13:22:45;5.10;;;3.05;;
36355;SDS011;22384;54.302;18.596;2023-02-28T13:28:02;6.47;;;3.08;;
36355;SDS011;22384;54.302;18.596;2023-02-28T13:35:46;7.68;;;3.47;;
36355;SDS011;22384;54.302;18.596;2023-02-28T13:38:16;10.25;;;3.80;;
36355;SDS011;22384;54.302;18.596;2023-02-28T13:40:42;9.57;;;3.40;;
36355;SDS011;22384;54.302;18.596;2023-02-28T13:43:08;8.45;;;3.83;;
36355;SDS011;22384;54.302;18.596;2023-02-28T13:45:36;8.68;;;3.08;;
36355;SDS011;22384;54.302;18.596;2023-02-28T13:48:14;8.10;;;3.58;;
36355;SDS011;22384;54.302;18.596;2023-02-28T13:50:42;8.50;;;3.70;;
36355;SDS011;22384;54.302;18.596;2023-02-28T13:53:30;9.00;;;3.35;;
36355;SDS011;22384;54.302;18.596;2023-02-28T14:06:18;9.68;;;4.35;;
36355;SDS011;22384;54.302;18.596;2023-02-28T14:08:56;6.45;;;2.63;;
36355;SDS011;22384;54.302;18.596;2023-02-28T14:11:27;6.70;;;3.00;;
36355;SDS011;22384;54.302;18.596;2023-02-28T14:13:54;8.60;;;3.17;;
36355;SDS011;22384;54.302;18.596;2023-02-28T14:16:21;11.10;;;3.20;;
36355;SDS011;22384;54.302;18.596;2023-02-28T14:19:01;6.40;;;2.72;;
36355;SDS011;22384;54.302;18.596;2023-02-28T14:21:34;7.47;;;3.58;;
36355;SDS011;22384;54.302;18.596;2023-02-28T14:24:16;12.18;;;3.17;;
36355;SDS011;22384;54.302;18.596;2023-02-28T14:27:06;10.55;;;2.90;;
36355;SDS011;22384;54.302;18.596;2023-02-28T14:37:28;6.13;;;2.72;;
36355;SDS011;22384;54.302;18.596;2023-02-28T14:39:56;7.25;;;2.95;;
36355;SDS011;22384;54.302;18.596;2023-02-28T14:42:33;7.78;;;3.28;;
36355;SDS011;22384;54.302;18.596;2023-02-28T14:45:01;9.68;;;2.75;;
36355;SDS011;22384;54.302;18.596;2023-02-28T14:47:28;6.20;;;2.90;;
36355;SDS011;22384;54.302;18.596;2023-02-28T14:49:58;8.05;;;3.30;;
36355;SDS011;22384;54.302;18.596;2023-02-28T14:52:27;9.52;;;3.40;;
36355;SDS011;22384;54.302;18.596;2023-02-28T14:54:58;8.60;;;3.08;;
36355;SDS011;22384;54.302;18.596;2023-02-28T14:57:29;9.95;;;3.53;;
36355;SDS011;22384;54.302;18.596;2023-02-28T15:02:25;7.00;;;3.13;;
36355;SDS011;22384;54.302;18.596;2023-02-28T15:05:02;7.40;;;3.08;;
36355;SDS011;22384;54.302;18.596;2023-02-28T15:07:37;8.88;;;3.92;;
36355;SDS011;22384;54.302;18.596;2023-02-28T15:10:12;11.13;;;3.88;;
36355;SDS011;22384;54.302;18.596;2023-02-28T15:12:39;10.73;;;3.72;;
36355;SDS011;22384;54.302;18.596;2023-02-28T15:15:14;8.00;;;3.50;;
36355;SDS011;22384;54.302;18.596;2023-02-28T15:17:40;11.88;;;3.45;;
36355;SDS011;22384;54.302;18.596;2023-02-28T15:20:11;6.82;;;2.92;;
36355;SDS011;22384;54.302;18.596;2023-02-28T15:22:38;7.32;;;3.67;;
36355;SDS011;22384;54.302;18.596;2023-02-28T15:25:05;12.38;;;4.43;;
36355;SDS011;22384;54.302;18.596;2023-02-28T15:27:33;11.13;;;4.25;;
36355;SDS011;22384;54.302;18.596;2023-02-28T15:30:13;12.80;;;3.85;;
36355;SDS011;22384;54.302;18.596;2023-02-28T15:32:42;8.73;;;4.25;;
36355;SDS011;22384;54.302;18.596;2023-02-28T15:35:26;9.98;;;3.72;;
36355;SDS011;22384;54.302;18.596;2023-02-28T15:38:00;7.03;;;3.78;;
36355;SDS011;22384;54.302;18.596;2023-02-28T15:40:28;11.88;;;4.70;;
36355;SDS011;22384;54.302;18.596;2023-02-28T15:43:03;9.90;;;4.18;;
36355;SDS011;22384;54.302;18.596;2023-02-28T15:48:29;14.35;;;4.75;;
36355;SDS011;22384;54.302;18.596;2023-02-28T15:51:00;11.13;;;3.75;;
36355;SDS011;22384;54.302;18.596;2023-02-28T15:53:32;10.70;;;4.63;;
36355;SDS011;22384;54.302;18.596;2023-02-28T15:56:03;27.13;;;16.58;;
36355;SDS011;22384;54.302;18.596;2023-02-28T15:58:30;16.23;;;6.85;;
36355;SDS011;22384;54.302;18.596;2023-02-28T16:01:07;15.88;;;6.38;;
36355;SDS011;22384;54.302;18.596;2023-02-28T16:03:47;13.13;;;6.00;;
36355;SDS011;22384;54.302;18.596;2023-02-28T16:08:47;10.40;;;5.40;;
36355;SDS011;22384;54.302;18.596;2023-02-28T16:11:14;12.65;;;5.35;;
36355;SDS011;22384;54.302;18.596;2023-02-28T16:13:41;11.52;;;5.30;;
36355;SDS011;22384;54.302;18.596;2023-02-28T16:16:07;14.23;;;5.45;;
36355;SDS011;22384;54.302;18.596;2023-02-28T16:18:34;18.17;;;6.25;;
36355;SDS011;22384;54.302;18.596;2023-02-28T16:21:01;14.88;;;6.05;;
36355;SDS011;22384;54.302;18.596;2023-02-28T16:23:27;22.17;;;7.80;;
36355;SDS011;22384;54.302;18.596;2023-02-28T16:25:53;24.63;;;9.00;;
36355;SDS011;22384;54.302;18.596;2023-02-28T16:28:29;30.08;;;11.88;;
36355;SDS011;22384;54.302;18.596;2023-02-28T16:30:57;29.02;;;11.18;;
36355;SDS011;22384;54.302;18.596;2023-02-28T16:33:25;22.25;;;8.57;;
36355;SDS011;22384;54.302;18.596;2023-02-28T16:35:51;18.83;;;8.27;;
36355;SDS011;22384;54.302;18.596;2023-02-28T16:38:18;23.08;;;9.43;;
36355;SDS011;22384;54.302;18.596;2023-02-28T16:41:04;22.08;;;9.50;;
36355;SDS011;22384;54.302;18.596;2023-02-28T16:43:32;22.25;;;9.65;;
36355;SDS011;22384;54.302;18.596;2023-02-28T16:45:59;24.90;;;10.90;;
36355;SDS011;22384;54.302;18.596;2023-02-28T16:48:28;24.33;;;10.20;;
36355;SDS011;22384;54.302;18.596;2023-02-28T16:50:56;23.80;;;9.00;;
36355;SDS011;22384;54.302;18.596;2023-02-28T16:53:22;30.45;;;13.18;;